Time;durP1;ratioP1;P1;durP2;ratioP2;P2;SDS_P1;SDS_P2;PMS_P1;PMS_P2;Temp;Humidity;BMP_temperature;BMP_pressure;BME280_temperature;BME280_humidity;BME280_pressure;Samples;Min_cycle;Max_cycle;Signal;HPM_P1;HPM_P2
2021/09/08 00:02:21;;;;;;;11.12;8.35;;;13.90;99.90;;;;;;1972766;72;21059;-76
2021/09/08 00:04:47;;;;;;;12.75;8.30;;;13.90;99.90;;;;;;1969437;72;21120;-74
2021/09/08 00:07:13;;;;;;;11.25;8.18;;;13.90;99.90;;;;;;1974380;72;21071;-75
2021/09/08 00:09:39;;;;;;;13.98;8.35;;;13.90;99.90;;;;;;1970286;72;21137;-74
2021/09/08 00:12:05;;;;;;;9.60;7.78;;;13.80;99.90;;;;;;1980714;72;21136;-74
2021/09/08 00:14:31;;;;;;;14.45;8.48;;;13.80;99.90;;;;;;1977432;72;21125;-75
2021/09/08 00:16:57;;;;;;;13.40;9.25;;;13.80;99.90;;;;;;1971934;72;21057;-74
2021/09/08 00:19:23;;;;;;;10.50;9.30;;;13.70;99.90;;;;;;1968859;72;21046;-74
2021/09/08 00:21:50;;;;;;;10.70;8.68;;;13.70;99.90;;;;;;1972640;72;21040;-74
2021/09/08 00:24:16;;;;;;;9.65;8.75;;;13.70;99.90;;;;;;1972300;72;21119;-75
2021/09/08 00:26:42;;;;;;;11.83;9.03;;;13.70;99.90;;;;;;1969414;72;21032;-74
2021/09/08 00:29:08;;;;;;;10.63;7.80;;;13.70;99.90;;;;;;1979013;72;21047;-75
2021/09/08 00:31:34;;;;;;;13.40;8.38;;;13.60;99.90;;;;;;1969483;72;21121;-74
2021/09/08 00:34:00;;;;;;;9.98;7.78;;;13.60;99.90;;;;;;1979566;72;21040;-75
2021/09/08 00:36:26;;;;;;;10.20;8.40;;;13.60;99.90;;;;;;1972050;72;21129;-75
2021/09/08 00:38:52;;;;;;;15.32;8.78;;;13.60;99.90;;;;;;1975831;72;21133;-74
2021/09/08 00:41:19;;;;;;;15.78;9.03;;;13.60;99.90;;;;;;1977281;72;21180;-75
2021/09/08 00:43:45;;;;;;;11.53;9.00;;;13.60;99.90;;;;;;1970831;72;21047;-74
2021/09/08 00:46:11;;;;;;;11.80;8.60;;;13.60;99.90;;;;;;1974541;73;21072;-74
2021/09/08 00:48:37;;;;;;;9.78;8.58;;;13.50;99.90;;;;;;1966977;72;21119;-75
2021/09/08 00:51:03;;;;;;;12.00;8.45;;;13.60;99.90;;;;;;1978044;72;21036;-74
2021/09/08 00:53:29;;;;;;;9.45;8.28;;;13.50;99.90;;;;;;1971085;72;21128;-74
2021/09/08 00:55:55;;;;;;;14.28;9.13;;;13.40;99.90;;;;;;1974428;73;21023;-74
2021/09/08 00:58:21;;;;;;;9.83;8.40;;;13.40;99.90;;;;;;1974350;72;21071;-77
2021/09/08 01:00:48;;;;;;;12.70;9.55;;;13.40;99.90;;;;;;1977643;72;21118;-74
2021/09/08 01:03:14;;;;;;;9.85;8.38;;;13.40;99.90;;;;;;1970750;72;21137;-76
2021/09/08 01:05:40;;;;;;;14.15;8.65;;;13.40;99.90;;;;;;1973346;72;21225;-76
2021/09/08 01:08:06;;;;;;;10.55;8.80;;;13.30;99.90;;;;;;1974729;72;21141;-77
2021/09/08 01:10:32;;;;;;;10.08;8.90;;;13.30;99.90;;;;;;1973693;72;21086;-76
2021/09/08 01:12:58;;;;;;;8.58;7.75;;;13.20;99.90;;;;;;1979311;72;21120;-76
2021/09/08 01:15:24;;;;;;;12.43;8.75;;;13.10;99.90;;;;;;1978562;72;21443;-76
2021/09/08 01:17:50;;;;;;;9.45;8.13;;;13.20;99.90;;;;;;1980636;72;21428;-76
2021/09/08 01:20:17;;;;;;;9.20;8.03;;;13.20;99.90;;;;;;1970965;72;21469;-74
2021/09/08 01:22:43;;;;;;;10.85;8.70;;;13.10;99.90;;;;;;1990326;72;21458;-74
2021/09/08 01:25:09;;;;;;;11.05;8.70;;;13.10;99.90;;;;;;1974401;72;21533;-75
2021/09/08 01:27:35;;;;;;;20.90;9.15;;;13.10;99.90;;;;;;1965354;72;21523;-74
2021/09/08 01:30:01;;;;;;;10.65;8.55;;;13.00;99.90;;;;;;1969556;72;21539;-74
2021/09/08 01:32:27;;;;;;;11.30;8.25;;;13.00;99.90;;;;;;1973179;72;21043;-74
2021/09/08 01:34:53;;;;;;;10.82;8.98;;;12.90;99.90;;;;;;1971108;72;21040;-74
2021/09/08 01:37:19;;;;;;;9.43;7.70;;;12.90;99.90;;;;;;1970636;72;21125;-74
2021/09/08 01:39:46;;;;;;;11.68;8.75;;;12.90;99.90;;;;;;1973002;72;21113;-75
2021/09/08 01:42:12;;;;;;;12.93;9.45;;;12.90;99.90;;;;;;1991534;72;21047;-75
2021/09/08 01:44:38;;;;;;;14.85;10.25;;;12.90;99.90;;;;;;1974401;73;21051;-75
2021/09/08 01:47:04;;;;;;;15.95;9.90;;;12.90;99.90;;;;;;1974411;73;21047;-74
2021/09/08 01:49:30;;;;;;;12.37;9.90;;;12.90;99.90;;;;;;1973327;72;21071;-75
2021/09/08 01:51:56;;;;;;;11.88;10.13;;;12.90;99.90;;;;;;1972268;72;21028;-74
2021/09/08 01:54:22;;;;;;;12.20;9.65;;;12.90;99.90;;;;;;1977764;72;21050;-74
2021/09/08 01:56:48;;;;;;;12.70;9.35;;;12.90;99.90;;;;;;1976759;72;21063;-75
2021/09/08 01:59:14;;;;;;;14.45;9.48;;;12.80;99.90;;;;;;1964573;72;21019;-74
2021/09/08 02:01:41;;;;;;;11.55;9.33;;;12.80;99.90;;;;;;1978893;72;21145;-75
2021/09/08 02:04:07;;;;;;;11.38;9.03;;;12.80;99.90;;;;;;1967788;72;21058;-75
2021/09/08 02:06:33;;;;;;;11.28;9.23;;;12.70;99.90;;;;;;1987020;72;21125;-74
2021/09/08 02:08:59;;;;;;;12.60;10.15;;;12.70;99.90;;;;;;1974440;72;21102;-74
2021/09/08 02:11:25;;;;;;;14.85;9.20;;;12.60;99.90;;;;;;1971085;72;21055;-74
2021/09/08 02:13:51;;;;;;;11.05;9.23;;;12.70;99.90;;;;;;1969482;72;21111;-75
2021/09/08 02:16:20;;;;;;;12.00;8.95;;;12.60;99.90;;;;;;1986010;72;21032;-75
2021/09/08 02:18:45;;;;;;;11.75;8.70;;;12.60;99.90;;;;;;1975420;72;21052;-76
2021/09/08 02:21:11;;;;;;;13.28;9.35;;;12.60;99.90;;;;;;1974312;72;21121;-76
2021/09/08 02:23:38;;;;;;;12.53;8.95;;;12.50;99.90;;;;;;1977459;72;21132;-76
2021/09/08 02:26:04;;;;;;;10.00;8.48;;;12.60;99.90;;;;;;1971088;72;21036;-75
2021/09/08 02:28:30;;;;;;;13.62;9.40;;;12.50;99.90;;;;;;1970640;72;21071;-75
2021/09/08 02:30:56;;;;;;;11.63;9.55;;;12.50;99.90;;;;;;1974385;72;21064;-76
2021/09/08 02:33:22;;;;;;;11.48;9.60;;;12.50;99.90;;;;;;1974604;73;21528;-75
2021/09/08 02:35:50;;;;;;;17.60;9.73;;;12.50;99.90;;;;;;1977696;72;21432;-75
2021/09/08 02:38:16;;;;;;;10.30;9.28;;;12.40;99.90;;;;;;1980606;72;21055;-76
2021/09/08 02:40:42;;;;;;;12.10;9.08;;;12.40;99.90;;;;;;1970446;72;21071;-75
2021/09/08 02:43:08;;;;;;;11.22;9.13;;;12.40;99.90;;;;;;1971201;72;21119;-75
2021/09/08 02:45:34;;;;;;;13.38;9.95;;;12.40;99.90;;;;;;1970545;72;21044;-75
2021/09/08 02:48:00;;;;;;;14.10;9.08;;;12.30;99.90;;;;;;1974502;73;21040;-75
2021/09/08 02:50:26;;;;;;;12.00;9.30;;;12.30;99.90;;;;;;1973526;72;21074;-75
2021/09/08 02:52:53;;;;;;;11.28;9.20;;;12.30;99.90;;;;;;1977695;72;21032;-75
2021/09/08 02:55:19;;;;;;;10.88;8.93;;;12.30;99.90;;;;;;1974363;72;21067;-76
2021/09/08 02:57:45;;;;;;;14.60;9.83;;;12.20;99.90;;;;;;1967509;72;21075;-75
2021/09/08 03:00:11;;;;;;;13.03;8.98;;;12.20;99.90;;;;;;1977474;72;21059;-74
2021/09/08 03:02:37;;;;;;;12.07;9.75;;;12.20;99.90;;;;;;1977248;72;21036;-75
2021/09/08 03:05:03;;;;;;;14.68;9.78;;;12.20;99.90;;;;;;1971224;72;21119;-74
2021/09/08 03:07:29;;;;;;;13.00;9.30;;;12.10;99.90;;;;;;1982686;72;21245;-73
2021/09/08 03:09:56;;;;;;;14.78;9.80;;;12.10;99.90;;;;;;1988251;72;21068;-74
2021/09/08 03:12:22;;;;;;;14.55;9.78;;;12.10;99.90;;;;;;1969652;72;21059;-74
2021/09/08 03:14:48;;;;;;;16.23;10.23;;;12.10;99.90;;;;;;1991370;72;21113;-75
2021/09/08 03:17:14;;;;;;;16.27;10.55;;;12.00;99.90;;;;;;1977167;72;21125;-75
2021/09/08 03:19:40;;;;;;;13.78;9.60;;;12.00;99.90;;;;;;1974424;73;21117;-76
2021/09/08 03:22:06;;;;;;;17.82;9.48;;;11.90;99.90;;;;;;1967985;72;21121;-75
2021/09/08 03:24:32;;;;;;;13.83;10.20;;;12.00;99.90;;;;;;1971383;72;21061;-75
2021/09/08 03:26:58;;;;;;;14.10;10.18;;;11.90;99.90;;;;;;1975504;72;21149;-75
2021/09/08 03:29:25;;;;;;;11.80;10.03;;;11.90;99.90;;;;;;1970498;72;21059;-76
2021/09/08 03:31:51;;;;;;;15.13;9.93;;;11.90;99.90;;;;;;1964123;72;21128;-75
2021/09/08 03:34:17;;;;;;;13.72;10.13;;;11.90;99.90;;;;;;1974221;72;21068;-76
2021/09/08 03:36:43;;;;;;;12.90;10.15;;;11.90;99.90;;;;;;1968868;72;21100;-76
2021/09/08 03:39:09;;;;;;;14.18;10.65;;;11.90;99.90;;;;;;1975896;72;21067;-76
2021/09/08 03:41:35;;;;;;;11.50;10.32;;;11.90;99.90;;;;;;1967516;72;21062;-75
2021/09/08 03:44:01;;;;;;;12.10;10.05;;;11.90;99.90;;;;;;1969573;72;21130;-75
2021/09/08 03:46:27;;;;;;;12.07;10.20;;;11.80;99.90;;;;;;1974572;72;21059;-75
2021/09/08 03:48:54;;;;;;;13.83;10.53;;;11.80;99.90;;;;;;1971863;72;21064;-75
2021/09/08 03:51:20;;;;;;;12.88;10.18;;;11.80;99.90;;;;;;1978164;72;21110;-75
2021/09/08 03:53:46;;;;;;;15.20;10.20;;;11.70;99.90;;;;;;1986766;72;21101;-75
2021/09/08 03:56:12;;;;;;;13.35;11.03;;;11.80;99.90;;;;;;1970732;72;21153;-75
2021/09/08 03:58:38;;;;;;;13.32;10.45;;;11.70;99.90;;;;;;1974595;73;21126;-75
2021/09/08 04:01:04;;;;;;;11.43;10.23;;;11.80;99.90;;;;;;1980833;72;21471;-75
2021/09/08 04:03:30;;;;;;;16.00;11.22;;;11.70;99.90;;;;;;1976609;72;21463;-76
2021/09/08 04:05:56;;;;;;;13.48;10.68;;;11.70;99.90;;;;;;1977745;72;21462;-75
2021/09/08 04:08:23;;;;;;;12.90;10.53;;;11.70;99.90;;;;;;1979745;72;21486;-75
2021/09/08 04:10:49;;;;;;;12.95;10.20;;;11.60;99.90;;;;;;1978198;72;21479;-75
2021/09/08 04:13:15;;;;;;;14.85;10.58;;;11.60;99.90;;;;;;1973254;72;21515;-75
2021/09/08 04:15:41;;;;;;;14.25;11.03;;;11.60;99.90;;;;;;1974437;72;21140;-75
2021/09/08 04:18:07;;;;;;;15.43;11.30;;;11.60;99.90;;;;;;1970687;72;21059;-75
2021/09/08 04:20:33;;;;;;;12.43;10.10;;;11.50;99.90;;;;;;1972920;72;21054;-75
2021/09/08 04:22:59;;;;;;;13.40;10.23;;;11.50;99.90;;;;;;1974360;72;21164;-77
2021/09/08 04:25:25;;;;;;;15.95;11.68;;;11.50;99.90;;;;;;1980359;72;21062;-75
2021/09/08 04:27:52;;;;;;;14.00;11.65;;;11.50;99.90;;;;;;1974300;72;21044;-75
2021/09/08 04:30:18;;;;;;;14.18;11.15;;;11.50;99.90;;;;;;1978911;72;21133;-75
2021/09/08 04:32:44;;;;;;;13.90;11.30;;;11.50;99.90;;;;;;1974548;72;21084;-75
2021/09/08 04:35:10;;;;;;;15.25;12.50;;;11.50;99.90;;;;;;1969895;72;21173;-75
2021/09/08 04:37:37;;;;;;;19.42;12.75;;;11.50;99.90;;;;;;1971555;72;21117;-75
2021/09/08 04:40:03;;;;;;;16.32;13.05;;;11.50;99.90;;;;;;1974544;72;21079;-75
2021/09/08 04:42:29;;;;;;;14.25;11.78;;;11.50;99.90;;;;;;1970803;72;21205;-75
2021/09/08 04:44:55;;;;;;;15.18;11.70;;;11.40;99.90;;;;;;1985506;72;21035;-75
2021/09/08 04:47:21;;;;;;;17.57;11.88;;;11.50;99.90;;;;;;1975726;72;21518;-75
2021/09/08 04:49:47;;;;;;;16.25;11.57;;;11.50;99.90;;;;;;1973779;72;21051;-75
2021/09/08 04:52:15;;;;;;;16.87;12.53;;;11.40;99.90;;;;;;1973523;72;21117;-76
2021/09/08 04:54:41;;;;;;;18.05;13.10;;;11.50;99.90;;;;;;1969221;72;21651;-76
2021/09/08 04:57:07;;;;;;;17.37;13.22;;;11.40;99.90;;;;;;1984409;72;21446;-75
2021/09/08 04:59:34;;;;;;;21.57;14.70;;;11.40;99.90;;;;;;1979560;72;21512;-75
2021/09/08 05:02:00;;;;;;;22.30;14.35;;;11.40;99.90;;;;;;1983285;72;21086;-76
2021/09/08 05:04:26;;;;;;;16.67;12.37;;;11.40;99.90;;;;;;1974452;72;21051;-76
2021/09/08 05:06:52;;;;;;;18.73;13.60;;;11.40;99.90;;;;;;1969171;72;21054;-76
2021/09/08 05:09:18;;;;;;;18.30;13.95;;;11.50;99.90;;;;;;1972616;72;21105;-75
2021/09/08 05:11:45;;;;;;;15.98;13.48;;;11.50;99.90;;;;;;1972140;72;21052;-76
2021/09/08 05:14:11;;;;;;;19.25;12.05;;;11.50;99.90;;;;;;1982951;72;21094;-75
2021/09/08 05:16:37;;;;;;;16.05;12.43;;;11.50;99.90;;;;;;1965997;72;21120;-75
2021/09/08 05:19:03;;;;;;;21.05;12.03;;;11.50;99.90;;;;;;1975857;72;21050;-75
2021/09/08 05:21:29;;;;;;;16.07;11.20;;;11.60;99.90;;;;;;1971894;72;21129;-75
2021/09/08 05:23:55;;;;;;;13.78;12.35;;;11.60;99.90;;;;;;1964431;72;21051;-76
2021/09/08 05:26:21;;;;;;;14.93;12.50;;;11.60;99.90;;;;;;1972625;72;21064;-75
2021/09/08 05:28:47;;;;;;;20.37;11.88;;;11.60;99.90;;;;;;1975288;72;21113;-76
2021/09/08 05:31:14;;;;;;;13.00;11.57;;;11.60;99.90;;;;;;1984952;72;21047;-76
2021/09/08 05:33:40;;;;;;;15.60;12.58;;;11.60;99.90;;;;;;1973430;72;21105;-75
2021/09/08 05:36:06;;;;;;;17.27;11.75;;;11.60;99.90;;;;;;1973847;72;21100;-75
2021/09/08 05:38:32;;;;;;;16.57;12.63;;;11.60;99.90;;;;;;1977105;72;21124;-75
2021/09/08 05:40:58;;;;;;;19.17;12.90;;;11.70;99.90;;;;;;1974337;72;21125;-75
2021/09/08 05:43:24;;;;;;;21.20;13.75;;;11.70;99.90;;;;;;1971034;72;21053;-75
2021/09/08 05:45:50;;;;;;;13.08;11.68;;;11.70;99.90;;;;;;1971043;72;21238;-75
2021/09/08 05:48:16;;;;;;;18.12;13.45;;;11.70;99.90;;;;;;1983345;72;21055;-75
2021/09/08 05:50:42;;;;;;;16.95;12.65;;;11.70;99.90;;;;;;1975670;72;21107;-76
2021/09/08 05:53:09;;;;;;;16.42;12.45;;;11.80;99.90;;;;;;1971679;72;21046;-76
2021/09/08 05:55:35;;;;;;;13.88;11.50;;;11.90;99.90;;;;;;1985173;72;21144;-75
2021/09/08 05:58:01;;;;;;;17.45;12.98;;;12.00;99.90;;;;;;1978666;72;21051;-76
2021/09/08 06:00:27;;;;;;;12.60;11.30;;;12.00;99.90;;;;;;1982356;72;21104;-76
2021/09/08 06:02:53;;;;;;;18.87;11.83;;;12.10;99.90;;;;;;1975920;72;21117;-76
2021/09/08 06:05:19;;;;;;;30.27;12.37;;;12.10;99.90;;;;;;1973775;72;21067;-76
2021/09/08 06:07:45;;;;;;;16.30;12.50;;;12.20;99.90;;;;;;1968557;72;21046;-76
2021/09/08 06:10:17;;;;;;;21.55;12.88;;;12.20;99.90;;;;;;1985964;72;21109;-76
2021/09/08 06:12:39;;;;;;;17.48;12.63;;;12.30;99.90;;;;;;1973846;72;21080;-76
2021/09/08 06:15:05;;;;;;;16.65;12.50;;;12.30;99.90;;;;;;1974652;73;21119;-76
2021/09/08 06:17:34;;;;;;;17.20;12.75;;;12.40;99.90;;;;;;1973578;72;21056;-76
2021/09/08 06:19:59;;;;;;;14.18;12.23;;;12.40;99.90;;;;;;1975129;72;21121;-76
2021/09/08 06:22:26;;;;;;;17.40;13.30;;;12.50;99.90;;;;;;1981290;72;21117;-76
2021/09/08 06:24:52;;;;;;;16.97;12.95;;;12.60;99.90;;;;;;1973946;72;21129;-76
2021/09/08 06:27:18;;;;;;;16.95;12.73;;;12.70;99.90;;;;;;1979844;72;21063;-75
2021/09/08 06:29:44;;;;;;;15.32;12.47;;;12.80;99.90;;;;;;1973858;72;21032;-75
2021/09/08 06:32:10;;;;;;;16.48;12.50;;;12.90;99.90;;;;;;1971056;72;21123;-75
2021/09/08 06:34:36;;;;;;;14.53;12.37;;;13.00;99.90;;;;;;1974315;72;21055;-75
2021/09/08 06:37:02;;;;;;;16.62;12.68;;;13.00;99.90;;;;;;1972476;72;21056;-75
2021/09/08 06:39:28;;;;;;;19.48;12.58;;;13.20;99.90;;;;;;1975831;72;21067;-75
2021/09/08 06:41:55;;;;;;;14.95;11.63;;;13.20;99.90;;;;;;1974338;73;21068;-75
2021/09/08 06:44:23;;;;;;;19.52;11.65;;;13.40;99.90;;;;;;1970248;72;21109;-75
2021/09/08 06:46:49;;;;;;;17.70;11.93;;;13.50;99.90;;;;;;1974380;72;21081;-75
2021/09/08 06:49:15;;;;;;;23.45;13.35;;;13.60;99.90;;;;;;1980714;72;21101;-75
2021/09/08 06:51:41;;;;;;;19.05;13.40;;;13.70;99.90;;;;;;1972429;72;21095;-75
2021/09/08 06:54:07;;;;;;;17.00;14.05;;;13.70;99.90;;;;;;1959734;72;21115;-75
2021/09/08 06:56:33;;;;;;;17.98;14.15;;;13.80;99.90;;;;;;1973560;72;21121;-75
2021/09/08 06:58:59;;;;;;;16.75;13.45;;;13.90;99.90;;;;;;1974404;73;21063;-75
2021/09/08 07:01:25;;;;;;;19.25;13.70;;;14.00;99.90;;;;;;1971117;72;21104;-75
2021/09/08 07:03:51;;;;;;;22.48;14.47;;;14.10;99.90;;;;;;1966526;72;21058;-74
2021/09/08 07:06:20;;;;;;;19.75;13.98;;;14.30;99.90;;;;;;1965646;72;21109;-75
2021/09/08 07:08:45;;;;;;;21.37;15.03;;;14.40;99.90;;;;;;1975162;72;21060;-75
2021/09/08 07:11:11;;;;;;;22.95;13.83;;;14.50;99.90;;;;;;1991576;72;21063;-75
2021/09/08 07:13:38;;;;;;;21.10;14.55;;;14.70;99.90;;;;;;1971828;72;21043;-75
2021/09/08 07:16:04;;;;;;;16.27;13.30;;;14.80;99.90;;;;;;1981864;72;21045;-75
2021/09/08 07:18:30;;;;;;;23.80;14.43;;;15.00;99.90;;;;;;1967792;72;21068;-75
2021/09/08 07:20:56;;;;;;;20.48;13.83;;;15.10;99.90;;;;;;1969480;72;21115;-75
2021/09/08 07:23:22;;;;;;;22.15;14.50;;;15.30;99.90;;;;;;1973582;72;21119;-74
2021/09/08 07:25:48;;;;;;;20.88;15.38;;;15.40;99.90;;;;;;1975679;72;21059;-74
2021/09/08 07:28:14;;;;;;;17.52;14.33;;;15.60;99.90;;;;;;1971953;72;21122;-74
2021/09/08 07:30:41;;;;;;;21.70;14.78;;;15.70;99.90;;;;;;1974170;72;21058;-75
2021/09/08 07:33:07;;;;;;;18.17;14.38;;;15.90;99.90;;;;;;1984042;72;21074;-76
2021/09/08 07:35:33;;;;;;;18.12;13.80;;;16.10;99.90;;;;;;1974643;72;21067;-74
2021/09/08 07:38:00;;;;;;;18.10;14.40;;;16.20;99.90;;;;;;1974240;72;21027;-76
2021/09/08 07:40:26;;;;;;;22.95;14.70;;;16.40;99.90;;;;;;1974720;72;21024;-76
2021/09/08 07:42:52;;;;;;;23.42;14.40;;;16.60;99.90;;;;;;1976801;72;21128;-76
2021/09/08 07:45:18;;;;;;;16.85;15.03;;;16.80;99.90;;;;;;1968565;72;21124;-75
2021/09/08 07:47:44;;;;;;;18.98;14.70;;;17.00;99.90;;;;;;1973064;72;21031;-75
2021/09/08 07:50:10;;;;;;;18.90;15.20;;;17.30;99.90;;;;;;1971177;72;21144;-76
2021/09/08 07:52:36;;;;;;;24.00;14.80;;;17.50;99.90;;;;;;1974353;72;21081;-75
2021/09/08 07:55:04;;;;;;;16.30;13.40;;;17.60;99.90;;;;;;1974514;72;21420;-75
2021/09/08 07:57:30;;;;;;;30.82;13.98;;;17.80;99.90;;;;;;1974309;73;21468;-76
2021/09/08 07:59:56;;;;;;;17.42;13.15;;;18.20;99.90;;;;;;1974466;73;21416;-75
2021/09/08 08:02:22;;;;;;;15.00;12.20;;;18.40;99.90;;;;;;1974345;73;21436;-76
2021/09/08 08:04:48;;;;;;;16.32;12.23;;;18.80;99.90;;;;;;1979255;72;21451;-75
2021/09/08 08:07:15;;;;;;;20.12;11.05;;;18.90;99.90;;;;;;1978659;72;21483;-76
2021/09/08 08:09:45;;;;;;;11.57;9.83;;;19.00;99.90;;;;;;1968679;72;21433;-76
2021/09/08 08:12:09;;;;;;;13.65;10.08;;;19.50;99.90;;;;;;1979062;72;21075;-75
2021/09/08 08:14:35;;;;;;;14.47;9.25;;;19.80;99.90;;;;;;1970679;72;21471;-76
2021/09/08 08:17:01;;;;;;;12.28;8.23;;;20.20;99.90;;;;;;1971881;72;21531;-76
2021/09/08 08:19:27;;;;;;;17.37;8.70;;;20.80;99.90;;;;;;1991459;72;21440;-76
2021/09/08 08:21:53;;;;;;;10.50;7.85;;;21.30;99.90;;;;;;1981787;72;21561;-76
2021/09/08 08:24:19;;;;;;;12.65;7.28;;;21.60;99.90;;;;;;1974341;72;21529;-76
2021/09/08 08:26:45;;;;;;;8.10;5.97;;;21.60;99.90;;;;;;1974315;72;21441;-76
2021/09/08 08:29:11;;;;;;;8.38;5.92;;;22.00;99.90;;;;;;1965191;72;21155;-75
2021/09/08 08:31:38;;;;;;;6.22;5.50;;;22.10;99.90;;;;;;1974676;72;21132;-75
2021/09/08 08:34:04;;;;;;;6.87;5.37;;;21.90;99.90;;;;;;1974300;72;21117;-75
2021/09/08 08:36:30;;;;;;;9.20;6.12;;;22.20;99.90;;;;;;1970141;72;21129;-75
2021/09/08 08:38:56;;;;;;;11.83;6.10;;;22.30;99.90;;;;;;1967845;72;21484;-75
2021/09/08 08:41:23;;;;;;;7.58;5.05;;;22.20;99.90;;;;;;1974362;72;21482;-75
2021/09/08 08:43:49;;;;;;;6.90;4.72;;;22.40;99.90;;;;;;1969827;72;21060;-74
2021/09/08 08:46:15;;;;;;;7.50;4.72;;;22.50;99.90;;;;;;1967014;72;21059;-74
2021/09/08 08:48:41;;;;;;;5.42;4.55;;;22.70;99.90;;;;;;1973339;72;21150;-75
2021/09/08 08:51:08;;;;;;;8.68;4.42;;;22.60;99.90;;;;;;1978412;72;21129;-77
2021/09/08 08:53:34;;;;;;;5.15;4.50;;;23.20;99.90;;;;;;1963864;72;21118;-75
2021/09/08 08:56:00;;;;;;;5.35;4.47;;;23.20;99.90;;;;;;1971175;72;21124;-75
2021/09/08 08:58:26;;;;;;;6.22;4.22;;;23.10;99.90;;;;;;1974401;72;21109;-75
2021/09/08 09:00:52;;;;;;;7.33;5.08;;;23.30;99.90;;;;;;1974498;72;21169;-75
2021/09/08 09:03:18;;;;;;;4.97;4.58;;;23.40;99.90;;;;;;1980372;72;21059;-75
2021/09/08 09:05:44;;;;;;;5.28;4.30;;;23.00;99.90;;;;;;1974666;73;21146;-75
2021/09/08 09:08:10;;;;;;;7.70;4.80;;;23.50;99.90;;;;;;1974233;72;21055;-75
2021/09/08 09:10:36;;;;;;;6.10;4.70;;;23.90;99.90;;;;;;1964871;72;21129;-75
2021/09/08 09:13:03;;;;;;;6.58;4.62;;;24.10;99.90;;;;;;1983815;72;21066;-75
2021/09/08 09:15:29;;;;;;;4.60;4.20;;;24.00;99.90;;;;;;1973677;72;21136;-75
2021/09/08 09:17:55;;;;;;;6.33;4.35;;;24.10;99.90;;;;;;1972446;72;21159;-75
2021/09/08 09:20:21;;;;;;;7.25;4.58;;;23.90;99.90;;;;;;1962944;72;21031;-75
2021/09/08 09:22:47;;;;;;;4.80;4.40;;;24.00;99.90;;;;;;1979149;72;21460;-75
2021/09/08 09:25:13;;;;;;;4.80;4.40;;;23.80;99.90;;;;;;1970831;72;21515;-74
2021/09/08 09:27:39;;;;;;;5.65;4.53;;;23.70;99.90;;;;;;1970876;72;21547;-74
2021/09/08 09:30:05;;;;;;;7.12;4.72;;;24.20;99.90;;;;;;1970034;72;21588;-75
2021/09/08 09:32:32;;;;;;;7.53;4.90;;;24.70;99.90;;;;;;1971633;72;21538;-75
2021/09/08 09:34:58;;;;;;;6.37;4.67;;;24.90;99.90;;;;;;1974532;72;21512;-74
2021/09/08 09:37:24;;;;;;;4.30;3.87;;;25.20;99.90;;;;;;1974506;73;21464;-73
2021/09/08 09:39:50;;;;;;;5.25;4.28;;;24.90;99.90;;;;;;1974418;72;21032;-73
2021/09/08 09:42:18;;;;;;;6.53;4.58;;;25.30;99.90;;;;;;1970651;72;21051;-73
2021/09/08 09:44:44;;;;;;;4.87;4.37;;;25.00;99.90;;;;;;1969278;72;21079;-74
2021/09/08 09:47:10;;;;;;;4.78;4.30;;;24.70;99.90;;;;;;1964100;72;21058;-74
2021/09/08 09:49:37;;;;;;;6.40;4.53;;;25.30;99.90;;;;;;1980306;72;21066;-75
2021/09/08 09:52:03;;;;;;;4.42;4.03;;;25.10;99.90;;;;;;1971473;72;21040;-74
2021/09/08 09:54:29;;;;;;;4.75;4.28;;;25.50;99.90;;;;;;1976077;72;21075;-75
2021/09/08 09:56:55;;;;;;;4.40;4.00;;;25.60;99.90;;;;;;1978801;72;21059;-74
2021/09/08 09:59:21;;;;;;;5.33;4.55;;;26.10;99.90;;;;;;1971379;72;21112;-74
2021/09/08 10:01:48;;;;;;;5.00;4.50;;;26.00;99.90;;;;;;1974363;73;21059;-75
2021/09/08 10:04:14;;;;;;;5.20;4.33;;;25.90;99.90;;;;;;1974316;72;21044;-74
2021/09/08 10:06:40;;;;;;;4.67;4.20;;;26.40;99.90;;;;;;1974156;72;21149;-74
2021/09/08 10:09:06;;;;;;;5.12;4.25;;;25.90;99.90;;;;;;1974392;73;21031;-74
2021/09/08 10:11:33;;;;;;;5.10;4.15;;;26.00;99.90;;;;;;1967407;72;21498;-75
2021/09/08 10:14:00;;;;;;;4.45;3.77;;;26.10;99.90;;;;;;1970350;72;21055;-75
2021/09/08 10:16:26;;;;;;;5.15;4.28;;;26.40;99.90;;;;;;1966593;72;21122;-75
2021/09/08 10:18:52;;;;;;;8.03;4.80;;;26.40;99.90;;;;;;1979141;72;21110;-74
2021/09/08 10:21:21;;;;;;;6.10;5.25;;;26.50;99.90;;;;;;1977276;72;21126;-75
2021/09/08 10:23:47;;;;;;;7.00;4.47;;;26.50;99.90;;;;;;1972909;72;21110;-74
2021/09/08 10:26:13;;;;;;;4.70;4.30;;;26.80;99.90;;;;;;1975052;72;21039;-75
2021/09/08 10:28:39;;;;;;;4.53;4.05;;;26.50;99.90;;;;;;1972675;72;21045;-75
2021/09/08 10:31:05;;;;;;;6.08;4.72;;;26.10;99.90;;;;;;1974397;73;21114;-74
2021/09/08 10:33:31;;;;;;;12.20;3.85;;;26.30;99.90;;;;;;1968008;72;21110;-73
2021/09/08 10:35:58;;;;;;;3.85;3.55;;;27.00;99.90;;;;;;1971884;72;21055;-74
2021/09/08 10:38:25;;;;;;;13.75;4.85;;;26.90;99.90;;;;;;1968096;72;21132;-74
2021/09/08 10:40:51;;;;;;;5.47;3.95;;;27.00;99.90;;;;;;1974399;73;21117;-74
2021/09/08 10:43:17;;;;;;;9.33;4.40;;;27.50;99.90;;;;;;1967764;72;21062;-74
2021/09/08 10:45:43;;;;;;;5.22;4.20;;;27.70;99.90;;;;;;1974394;72;21030;-73
2021/09/08 10:48:09;;;;;;;6.62;4.25;;;26.80;99.90;;;;;;1974487;73;21113;-73
2021/09/08 10:50:35;;;;;;;4.30;3.90;;;26.60;99.90;;;;;;1973835;72;21124;-73
2021/09/08 10:53:04;;;;;;;7.42;3.77;;;26.80;99.90;;;;;;1974362;72;21121;-74
2021/09/08 10:55:29;;;;;;;5.53;4.08;;;26.60;99.90;;;;;;1974565;72;21039;-74
2021/09/08 10:57:56;;;;;;;4.17;3.77;;;26.50;99.90;;;;;;1987863;72;21048;-73
2021/09/08 11:00:22;;;;;;;4.33;3.85;;;26.60;99.90;;;;;;1972775;72;21121;-73
2021/09/08 11:02:48;;;;;;;4.87;4.33;;;26.10;99.90;;;;;;1984924;72;21136;-73
2021/09/08 11:05:14;;;;;;;4.47;4.05;;;26.50;99.90;;;;;;1980715;72;21027;-73
2021/09/08 11:07:40;;;;;;;4.62;4.10;;;26.60;99.90;;;;;;1974487;72;21064;-73
2021/09/08 11:10:06;;;;;;;4.12;3.72;;;26.60;99.90;;;;;;1967723;72;21052;-76
2021/09/08 11:12:32;;;;;;;6.37;3.90;;;26.80;99.90;;;;;;1970048;72;21122;-76
2021/09/08 11:15:00;;;;;;;6.40;4.00;;;27.30;99.90;;;;;;1970258;72;21036;-73
2021/09/08 11:17:26;;;;;;;4.62;3.83;;;27.80;99.90;;;;;;1984929;72;21076;-74
2021/09/08 11:19:52;;;;;;;5.10;3.85;;;27.80;99.90;;;;;;1972011;72;21102;-74
2021/09/08 11:22:18;;;;;;;3.72;3.40;;;28.40;99.90;;;;;;1972707;72;21062;-74
2021/09/08 11:24:44;;;;;;;5.53;3.77;;;28.50;99.90;;;;;;1971706;72;21064;-74
2021/09/08 11:27:10;;;;;;;4.83;3.80;;;28.20;99.90;;;;;;1973856;72;21027;-74
2021/09/08 11:29:37;;;;;;;6.80;3.75;;;28.30;99.90;;;;;;1971648;72;21027;-74
2021/09/08 11:32:03;;;;;;;5.95;3.95;;;28.30;99.90;;;;;;1973149;72;21054;-74
2021/09/08 11:34:30;;;;;;;4.05;3.47;;;28.40;99.90;;;;;;1979535;72;21145;-74
2021/09/08 11:36:56;;;;;;;5.50;4.05;;;28.50;99.90;;;;;;1974229;72;21121;-74
2021/09/08 11:39:22;;;;;;;7.50;3.58;;;28.80;99.90;;;;;;1976891;72;21206;-74
2021/09/08 11:41:48;;;;;;;7.33;3.87;;;29.40;99.90;;;;;;1973732;72;21242;-74
2021/09/08 11:44:14;;;;;;;7.60;3.98;;;29.70;99.10;;;;;;1977687;72;21070;-74
2021/09/08 11:46:40;;;;;;;4.55;3.40;;;29.60;99.10;;;;;;1991331;72;21064;-74
2021/09/08 11:49:06;;;;;;;5.60;3.37;;;29.30;98.20;;;;;;1975285;72;21067;-74
2021/09/08 11:51:33;;;;;;;3.92;3.08;;;29.80;98.10;;;;;;1966615;72;21144;-74
2021/09/08 11:54:01;;;;;;;3.80;3.35;;;30.00;97.70;;;;;;1977788;72;21126;-75
2021/09/08 11:56:26;;;;;;;5.35;3.42;;;30.20;97.60;;;;;;1974011;72;21449;-74
2021/09/08 11:58:53;;;;;;;6.12;3.35;;;29.80;97.80;;;;;;1974290;73;21463;-74
2021/09/08 12:01:19;;;;;;;5.42;3.33;;;30.10;96.70;;;;;;1971141;72;21055;-74
2021/09/08 12:03:47;;;;;;;3.85;3.15;;;30.70;95.50;;;;;;1970518;72;21070;-74
2021/09/08 12:06:13;;;;;;;4.90;3.77;;;30.40;94.90;;;;;;1974362;72;21113;-74
2021/09/08 12:08:39;;;;;;;4.87;3.62;;;30.70;94.90;;;;;;1973023;72;21043;-74
2021/09/08 12:11:09;;;;;;;4.90;3.70;;;30.20;95.70;;;;;;1971514;72;21058;-74
2021/09/08 12:13:36;;;;;;;3.85;3.42;;;30.30;94.60;;;;;;1977364;72;21152;-73
2021/09/08 12:16:02;;;;;;;4.62;3.17;;;30.30;95.30;;;;;;1967311;72;21113;-74
2021/09/08 12:18:28;;;;;;;5.33;3.37;;;30.90;94.20;;;;;;1983893;72;21537;-74
2021/09/08 12:20:54;;;;;;;3.52;3.22;;;31.30;92.30;;;;;;1982455;72;21492;-74
2021/09/08 12:23:20;;;;;;;5.80;3.45;;;31.40;91.70;;;;;;1972714;72;21451;-74
2021/09/08 12:25:46;;;;;;;3.55;3.25;;;31.20;91.10;;;;;;1974455;72;21020;-74
2021/09/08 12:28:15;;;;;;;3.58;3.27;;;31.40;91.10;;;;;;1971119;72;21164;-74
2021/09/08 12:30:40;;;;;;;3.95;3.05;;;31.40;90.40;;;;;;1963567;72;21141;-73